Time,TemperatureF,DewpointF,PressureIn,WindDirection,WindDirectionDegrees,WindSpeedMPH,WindSpeedGustMPH,Humidity,HourlyPrecipIn,Conditions,Clouds,dailyrainin,SoftwareType,DateUTC
2013-07-02 00:02:00,60.8,56.6,30.09,NNE,15,0.0,0.0,86,0.00,,,0.00,Wunderground v.1.15,2013-07-02 05:02:00,
2013-07-02 00:07:00,60.7,56.2,30.08,NNE,15,0.0,0.0,85,0.00,,,0.00,Wunderground v.1.15,2013-07-02 05:07:00,
2013-07-02 00:12:00,60.8,55.6,30.08,NNE,15,0.0,0.0,83,0.00,,,0.00,Wunderground v.1.15,2013-07-02 05:12:00,
2013-07-02 00:17:00,61.0,55.5,30.08,NNE,15,0.0,0.0,82,0.00,,,0.00,Wunderground v.1.15,2013-07-02 05:17:00,
2013-07-02 00:22:00,61.0,54.8,30.08,NNE,15,0.0,0.0,80,0.00,,,0.00,Wunderground v.1.15,2013-07-02 05:22:00,
2013-07-02 00:27:00,61.0,54.4,30.08,NNE,15,0.0,0.0,79,0.00,,,0.00,Wunderground v.1.15,2013-07-02 05:27:00,
2013-07-02 00:32:00,61.4,54.8,30.08,NNE,15,0.0,0.0,79,0.00,,,0.00,Wunderground v.1.15,2013-07-02 05:32:00,
2013-07-02 00:37:00,61.3,55.1,30.08,NNE,15,0.0,0.0,80,0.00,,,0.00,Wunderground v.1.15,2013-07-02 05:37:00,
2013-07-02 00:47:00,60.3,55.1,30.08,NNE,15,0.0,0.0,83,0.00,,,0.00,Wunderground v.1.15,2013-07-02 05:47:00,
2013-07-02 00:52:00,60.0,54.5,30.08,NNE,15,0.0,0.0,82,0.00,,,0.00,Wunderground v.1.15,2013-07-02 05:52:00,
2013-07-02 00:58:00,60.2,54.3,30.08,WSW,252,0.0,0.0,81,0.00,,,0.00,Wunderground v.1.15,2013-07-02 05:58:00,
2013-07-02 01:07:00,60.3,54.1,30.08,SSW,211,0.0,0.0,80,0.00,,,0.00,Wunderground v.1.15,2013-07-02 06:07:00,
2013-07-02 01:12:00,60.0,54.5,30.08,SW,218,0.0,0.0,82,0.00,,,0.00,Wunderground v.1.15,2013-07-02 06:12:00,
2013-07-02 01:22:00,59.1,53.9,30.08,SW,218,0.0,0.0,83,0.00,,,0.00,Wunderground v.1.15,2013-07-02 06:22:00,
2013-07-02 01:27:00,59.2,54.0,30.08,SW,218,0.0,0.0,83,0.00,,,0.00,Wunderground v.1.15,2013-07-02 06:27:00,
2013-07-02 01:32:00,59.2,54.0,30.08,SW,218,0.0,0.0,83,0.00,,,0.00,Wunderground v.1.15,2013-07-02 06:32:00,
2013-07-02 01:37:00,59.0,54.2,30.08,SW,218,0.0,0.0,84,0.00,,,0.00,Wunderground v.1.15,2013-07-02 06:37:00,
2013-07-02 01:42:00,58.9,54.1,30.08,SW,218,0.0,0.0,84,0.00,,,0.00,Wunderground v.1.15,2013-07-02 06:42:00,
2013-07-02 01:47:00,58.9,54.1,30.08,SW,218,0.0,0.0,84,0.00,,,0.00,Wunderground v.1.15,2013-07-02 06:47:00,
2013-07-02 01:57:00,58.5,54.6,30.08,SW,218,0.0,0.0,87,0.00,,,0.00,Wunderground v.1.15,2013-07-02 06:57:00,
2013-07-02 02:07:00,58.2,54.3,30.08,SSW,212,0.0,0.0,87,0.00,,,0.00,Wunderground v.1.15,2013-07-02 07:07:00,
2013-07-02 02:12:00,58.2,54.0,30.08,SSW,212,0.0,0.0,86,0.00,,,0.00,Wunderground v.1.15,2013-07-02 07:12:00,
2013-07-02 02:17:00,58.0,54.2,30.08,SSW,212,0.0,0.0,87,0.00,,,0.00,Wunderground v.1.15,2013-07-02 07:17:00,
2013-07-02 02:22:00,57.8,54.0,30.08,SSW,212,0.0,0.0,87,0.00,,,0.00,Wunderground v.1.15,2013-07-02 07:22:00,
2013-07-02 02:32:00,57.3,53.8,30.07,SSW,212,0.0,0.0,88,0.00,,,0.00,Wunderground v.1.15,2013-07-02 07:32:00,
2013-07-02 02:37:00,57.2,54.0,30.07,SSW,212,0.0,0.0,89,0.00,,,0.00,Wunderground v.1.15,2013-07-02 07:37:00,
2013-07-02 02:42:00,57.5,54.0,30.07,SSW,212,0.0,0.0,88,0.00,,,0.00,Wunderground v.1.15,2013-07-02 07:42:00,
2013-07-02 02:47:00,57.8,54.0,30.07,SSW,212,0.0,0.0,87,0.00,,,0.00,Wunderground v.1.15,2013-07-02 07:47:00,
2013-07-02 02:52:00,57.7,53.9,30.07,SSW,212,0.0,0.0,87,0.00,,,0.00,Wunderground v.1.15,2013-07-02 07:52:00,
2013-07-02 02:57:00,57.4,53.6,30.07,SSW,212,0.0,0.0,87,0.00,,,0.00,Wunderground v.1.15,2013-07-02 07:57:00,
2013-07-02 03:07:00,56.8,53.6,30.08,SSW,212,0.0,0.0,89,0.00,,,0.00,Wunderground v.1.15,2013-07-02 08:07:00,
2013-07-02 03:12:00,56.6,53.4,30.07,SSW,212,0.0,0.0,89,0.00,,,0.00,Wunderground v.1.15,2013-07-02 08:12:00,
2013-07-02 03:22:00,56.3,53.4,30.07,SSW,212,0.0,0.0,90,0.00,,,0.00,Wunderground v.1.15,2013-07-02 08:22:00,
2013-07-02 03:27:00,56.2,53.3,30.07,SSW,212,0.0,0.0,90,0.00,,,0.00,Wunderground v.1.15,2013-07-02 08:27:00,
2013-07-02 03:37:00,55.9,53.3,30.07,SSW,212,0.0,0.0,91,0.00,,,0.00,Wunderground v.1.15,2013-07-02 08:37:00,
2013-07-02 03:42:00,55.6,53.0,30.07,SSW,212,0.0,0.0,91,0.00,,,0.00,Wunderground v.1.15,2013-07-02 08:42:00,
2013-07-02 03:47:00,55.5,53.2,30.07,SSW,213,0.0,0.0,92,0.00,,,0.00,Wunderground v.1.15,2013-07-02 08:47:00,
2013-07-02 03:52:00,55.4,53.1,30.07,SSW,212,0.0,0.0,92,0.00,,,0.00,Wunderground v.1.15,2013-07-02 08:52:00,
2013-07-02 03:57:00,55.4,53.1,30.07,SSW,212,0.0,0.0,92,0.00,,,0.00,Wunderground v.1.15,2013-07-02 08:57:00,
2013-07-02 04:07:00,55.8,53.5,30.07,SSW,212,0.0,0.0,92,0.00,,,0.00,Wunderground v.1.15,2013-07-02 09:07:00,
2013-07-02 04:12:00,55.9,53.3,30.07,SSW,212,0.0,0.0,91,0.00,,,0.00,Wunderground v.1.15,2013-07-02 09:12:00,
2013-07-02 04:17:00,56.0,53.4,30.07,SSW,212,0.0,0.0,91,0.00,,,0.00,Wunderground v.1.15,2013-07-02 09:17:00,
2013-07-02 04:22:00,56.0,53.4,30.07,SSW,212,0.0,0.0,91,0.00,,,0.00,Wunderground v.1.15,2013-07-02 09:22:00,
2013-07-02 04:32:00,55.9,53.3,30.07,SSW,212,0.0,0.0,91,0.00,,,0.00,Wunderground v.1.15,2013-07-02 09:32:00,
2013-07-02 04:37:00,55.9,53.3,30.07,SSW,212,0.0,0.0,91,0.00,,,0.00,Wunderground v.1.15,2013-07-02 09:37:00,
2013-07-02 04:47:00,55.5,52.6,30.07,SSW,212,0.0,0.0,90,0.00,,,0.00,Wunderground v.1.15,2013-07-02 09:47:00,
2013-07-02 04:52:00,55.2,52.6,30.07,SSW,212,0.0,0.0,91,0.00,,,0.00,Wunderground v.1.15,2013-07-02 09:52:00,
2013-07-02 04:57:00,55.2,52.9,30.07,SSW,212,0.0,0.0,92,0.00,,,0.00,Wunderground v.1.15,2013-07-02 09:57:00,
2013-07-02 05:07:00,55.1,52.5,30.08,SSW,212,0.0,0.0,91,0.00,,,0.00,Wunderground v.1.15,2013-07-02 10:07:00,
2013-07-02 05:12:00,55.2,52.6,30.08,SSW,212,0.0,0.0,91,0.00,,,0.00,Wunderground v.1.15,2013-07-02 10:12:00,
2013-07-02 05:17:00,55.3,52.7,30.08,SSW,212,0.0,0.0,91,0.00,,,0.00,Wunderground v.1.15,2013-07-02 10:17:00,
2013-07-02 05:22:00,55.2,52.6,30.08,SSW,212,0.0,0.0,91,0.00,,,0.00,Wunderground v.1.15,2013-07-02 10:22:00,
2013-07-02 05:27:00,55.2,52.6,30.08,SSW,212,0.0,0.0,91,0.00,,,0.00,Wunderground v.1.15,2013-07-02 10:27:00,
2013-07-02 05:37:00,55.1,52.8,30.08,SSW,212,0.0,0.0,92,0.00,,,0.00,Wunderground v.1.15,2013-07-02 10:37:00,
2013-07-02 05:42:00,55.0,52.7,30.08,SSW,212,0.0,0.0,92,0.00,,,0.00,Wunderground v.1.15,2013-07-02 10:42:00,
2013-07-02 05:52:00,55.2,52.9,30.08,SSW,212,0.0,0.0,92,0.00,,,0.00,Wunderground v.1.15,2013-07-02 10:52:00,
2013-07-02 05:57:00,55.2,52.9,30.08,SSW,212,0.0,0.0,92,0.00,,,0.00,Wunderground v.1.15,2013-07-02 10:57:00,
2013-07-02 06:07:00,55.9,53.6,30.09,SSW,212,0.0,0.0,92,0.00,,,0.00,Wunderground v.1.15,2013-07-02 11:07:00,
2013-07-02 06:12:00,56.4,53.8,30.09,SSW,212,0.0,0.0,91,0.00,,,0.00,Wunderground v.1.15,2013-07-02 11:12:00,
2013-07-02 06:17:00,56.8,53.9,30.09,SSW,212,0.0,0.0,90,0.00,,,0.00,Wunderground v.1.15,2013-07-02 11:17:00,
2013-07-02 06:27:00,57.2,54.0,30.09,SW,214,0.0,0.0,89,0.00,,,0.00,Wunderground v.1.15,2013-07-02 11:27:00,
2013-07-02 06:32:00,57.3,54.1,30.09,SW,214,0.0,0.0,89,0.00,,,0.00,Wunderground v.1.15,2013-07-02 11:32:00,
2013-07-02 06:37:00,57.5,54.3,30.09,SW,214,0.0,0.0,89,0.00,,,0.00,Wunderground v.1.15,2013-07-02 11:37:00,
2013-07-02 06:47:00,58.1,54.6,30.10,SW,233,0.0,0.0,88,0.00,,,0.00,Wunderground v.1.15,2013-07-02 11:47:00,
2013-07-02 06:52:00,58.3,54.8,30.10,WNW,295,0.0,0.0,88,0.00,,,0.00,Wunderground v.1.15,2013-07-02 11:52:00,
2013-07-02 06:57:00,58.8,55.3,30.10,WNW,295,0.0,0.0,88,0.00,,,0.00,Wunderground v.1.15,2013-07-02 11:57:00,
2013-07-02 07:07:00,60.4,55.5,30.10,North,8,0.0,0.0,84,0.00,,,0.00,Wunderground v.1.15,2013-07-02 12:07:00,
2013-07-02 07:12:00,61.0,55.8,30.10,NNW,343,0.0,1.0,83,0.00,,,0.00,Wunderground v.1.15,2013-07-02 12:12:00,
2013-07-02 07:17:00,61.2,56.0,30.10,North,352,0.0,0.0,83,0.00,,,0.00,Wunderground v.1.15,2013-07-02 12:17:00,
2013-07-02 07:22:00,61.7,55.8,30.10,North,356,0.0,0.0,81,0.00,,,0.00,Wunderground v.1.15,2013-07-02 12:22:00,
2013-07-02 07:32:00,62.2,56.3,30.10,NE,34,0.0,2.0,81,0.00,,,0.00,Wunderground v.1.15,2013-07-02 12:32:00,
2013-07-02 07:37:00,62.2,55.6,30.10,NNE,33,0.0,0.0,79,0.00,,,0.00,Wunderground v.1.15,2013-07-02 12:37:00,
2013-07-02 07:42:00,62.4,56.1,30.10,NE,41,0.0,0.0,80,0.00,,,0.00,Wunderground v.1.15,2013-07-02 12:42:00,
2013-07-02 07:47:00,62.8,56.5,30.10,NE,45,0.0,1.0,80,0.00,,,0.00,Wunderground v.1.15,2013-07-02 12:47:00,
2013-07-02 07:52:00,62.9,55.9,30.10,North,352,0.0,1.0,78,0.00,,,0.00,Wunderground v.1.15,2013-07-02 12:52:00,
2013-07-02 08:02:00,63.3,56.3,30.10,NNE,25,0.0,0.0,78,0.00,,,0.00,Wunderground v.1.15,2013-07-02 13:02:00,
2013-07-02 08:07:00,63.4,56.1,30.10,NE,36,0.0,0.0,77,0.00,,,0.00,Wunderground v.1.15,2013-07-02 13:07:00,
2013-07-02 08:12:00,63.6,56.3,30.10,NNE,30,0.0,0.0,77,0.00,,,0.00,Wunderground v.1.15,2013-07-02 13:12:00,
2013-07-02 08:17:00,63.7,55.3,30.10,NNE,32,1.0,1.0,74,0.00,,,0.00,Wunderground v.1.15,2013-07-02 13:17:00,
2013-07-02 08:22:00,63.8,55.7,30.10,NNE,22,0.0,1.0,75,0.00,,,0.00,Wunderground v.1.15,2013-07-02 13:22:00,
2013-07-02 08:27:00,64.0,55.5,30.10,NNE,23,0.0,0.0,74,0.00,,,0.00,Wunderground v.1.15,2013-07-02 13:27:00,
2013-07-02 08:32:00,64.1,55.6,30.10,NNE,23,0.0,1.0,74,0.00,,,0.00,Wunderground v.1.15,2013-07-02 13:32:00,
2013-07-02 08:42:00,64.0,55.9,30.10,NE,34,0.0,0.0,75,0.00,,,0.00,Wunderground v.1.15,2013-07-02 13:42:00,
2013-07-02 08:47:00,64.2,56.1,30.10,NE,34,0.0,0.0,75,0.00,,,0.00,Wunderground v.1.15,2013-07-02 13:47:00,
2013-07-02 08:57:00,65.1,56.6,30.10,NNE,27,1.0,2.0,74,0.00,,,0.00,Wunderground v.1.15,2013-07-02 13:57:00,
2013-07-02 09:06:00,65.2,55.6,30.10,NNE,22,1.0,1.0,71,0.00,,,0.00,Wunderground v.1.15,2013-07-02 14:06:00,
2013-07-02 09:16:00,65.6,55.2,30.10,North,1,1.0,1.0,69,0.00,,,0.00,Wunderground v.1.15,2013-07-02 14:16:00,
2013-07-02 09:22:00,65.9,55.4,30.10,NNE,25,1.0,2.0,69,0.00,,,0.00,Wunderground v.1.15,2013-07-02 14:22:00,
2013-07-02 09:31:00,66.6,56.1,30.10,North,355,1.0,1.0,69,0.00,,,0.00,Wunderground v.1.15,2013-07-02 14:31:00,
2013-07-02 09:36:00,67.3,56.4,30.10,North,9,1.0,1.0,68,0.00,,,0.00,Wunderground v.1.15,2013-07-02 14:36:00,
2013-07-02 09:41:00,67.9,56.5,30.10,NE,40,0.0,1.0,67,0.00,,,0.00,Wunderground v.1.15,2013-07-02 14:41:00,
2013-07-02 09:51:00,68.9,56.2,30.10,NE,36,1.0,2.0,64,0.00,,,0.00,Wunderground v.1.15,2013-07-02 14:51:00,
2013-07-02 09:57:00,69.1,56.8,30.10,North,356,1.0,1.0,65,0.00,,,0.00,Wunderground v.1.15,2013-07-02 14:57:00,
2013-07-02 10:06:00,70.6,57.4,30.10,NNW,339,0.0,0.0,63,0.00,,,0.00,Wunderground v.1.15,2013-07-02 15:06:00,
2013-07-02 10:11:00,70.5,56.4,30.09,NE,40,1.0,1.0,61,0.00,,,0.00,Wunderground v.1.15,2013-07-02 15:11:00,
2013-07-02 10:16:00,70.3,56.7,30.09,North,350,1.0,1.0,62,0.00,,,0.00,Wunderground v.1.15,2013-07-02 15:16:00,
2013-07-02 10:26:00,71.0,58.2,30.09,North,9,1.0,2.0,64,0.00,,,0.00,Wunderground v.1.15,2013-07-02 15:26:00,
2013-07-02 10:31:00,71.2,57.1,30.09,North,356,1.0,5.0,61,0.00,,,0.00,Wunderground v.1.15,2013-07-02 15:31:00,
2013-07-02 10:36:00,71.2,57.1,30.09,North,360,1.0,1.0,61,0.00,,,0.00,Wunderground v.1.15,2013-07-02 15:36:00,
2013-07-02 10:41:00,71.6,57.0,30.09,NE,43,1.0,1.0,60,0.00,,,0.00,Wunderground v.1.15,2013-07-02 15:41:00,
2013-07-02 10:46:00,72.1,56.0,30.09,NNE,19,2.0,3.0,57,0.00,,,0.00,Wunderground v.1.15,2013-07-02 15:46:00,
2013-07-02 10:56:00,72.5,56.9,30.09,North,349,3.0,3.0,58,0.00,,,0.00,Wunderground v.1.15,2013-07-02 15:56:00,
2013-07-02 11:06:00,72.7,54.6,30.09,NNE,19,3.0,3.0,53,0.00,,,0.00,Wunderground v.1.15,2013-07-02 16:06:00,
2013-07-02 11:11:00,72.7,55.6,30.09,SE,139,2.0,3.0,55,0.00,,,0.00,Wunderground v.1.15,2013-07-02 16:11:00,
2013-07-02 11:16:00,73.1,54.4,30.09,NE,40,2.0,2.0,52,0.00,,,0.00,Wunderground v.1.15,2013-07-02 16:16:00,
2013-07-02 11:21:00,73.2,54.5,30.08,ESE,105,2.0,2.0,52,0.00,,,0.00,Wunderground v.1.15,2013-07-02 16:21:00,
2013-07-02 11:31:00,73.0,53.8,30.08,NW,318,3.0,4.0,51,0.00,,,0.00,Wunderground v.1.15,2013-07-02 16:31:00,
2013-07-02 11:36:00,73.6,55.4,30.08,NNE,30,3.0,3.0,53,0.00,,,0.00,Wunderground v.1.15,2013-07-02 16:36:00,
2013-07-02 11:46:00,74.6,55.8,30.08,ENE,57,2.0,4.0,52,0.00,,,0.00,Wunderground v.1.15,2013-07-02 16:46:00,
2013-07-02 11:51:00,74.4,56.7,30.08,SSE,165,2.0,4.0,54,0.00,,,0.00,Wunderground v.1.15,2013-07-02 16:51:00,
2013-07-02 11:56:00,75.1,56.8,30.08,NE,50,1.0,1.0,53,0.00,,,0.00,Wunderground v.1.15,2013-07-02 16:56:00,
2013-07-02 12:06:00,75.4,54.3,30.09,NNE,27,3.0,3.0,48,0.00,,,0.00,Wunderground v.1.15,2013-07-02 17:06:00,
2013-07-02 12:11:00,75.0,56.2,30.09,NNE,13,3.0,6.0,52,0.00,,,0.00,Wunderground v.1.15,2013-07-02 17:11:00,
2013-07-02 12:16:00,75.1,54.6,30.08,NE,54,3.0,3.0,49,0.00,,,0.00,Wunderground v.1.15,2013-07-02 17:16:00,
2013-07-02 12:21:00,75.3,56.5,30.08,ENE,58,2.0,3.0,52,0.00,,,0.00,Wunderground v.1.15,2013-07-02 17:21:00,
2013-07-02 12:31:00,75.7,56.8,30.08,ESE,105,1.0,1.0,52,0.00,,,0.00,Wunderground v.1.15,2013-07-02 17:31:00,
2013-07-02 12:41:00,74.9,57.6,30.08,NE,40,3.0,3.0,55,0.00,,,0.00,Wunderground v.1.15,2013-07-02 17:41:00,
2013-07-02 12:46:00,74.6,55.3,30.08,NE,54,3.0,4.0,51,0.00,,,0.00,Wunderground v.1.15,2013-07-02 17:46:00,
2013-07-02 12:51:00,74.3,57.1,30.08,East,86,2.0,4.0,55,0.00,,,0.00,Wunderground v.1.15,2013-07-02 17:51:00,
2013-07-02 12:56:00,74.0,56.3,30.08,NNW,347,2.0,4.0,54,0.00,,,0.00,Wunderground v.1.15,2013-07-02 17:56:00,
2013-07-02 13:05:00,74.0,54.7,30.08,NNW,346,3.0,3.0,51,0.00,,,0.00,Wunderground v.1.15,2013-07-02 18:05:00,
2013-07-02 13:11:00,73.9,57.2,30.08,North,4,3.0,3.0,56,0.00,,,0.00,Wunderground v.1.15,2013-07-02 18:11:00,
2013-07-02 13:16:00,74.2,55.4,30.08,NNE,27,2.0,2.0,52,0.00,,,0.00,Wunderground v.1.15,2013-07-02 18:16:00,
2013-07-02 13:21:00,74.8,57.0,30.08,NNW,334,2.0,2.0,54,0.00,,,0.00,Wunderground v.1.15,2013-07-02 18:21:00,
2013-07-02 13:30:00,74.8,54.9,30.07,NE,46,3.0,3.0,50,0.00,,,0.00,Wunderground v.1.15,2013-07-02 18:30:00,
2013-07-02 13:35:00,74.8,54.9,30.07,NNW,344,4.0,4.0,50,0.00,,,0.00,Wunderground v.1.15,2013-07-02 18:35:00,
2013-07-02 13:40:00,74.9,54.4,30.07,NNW,346,5.0,6.0,49,0.00,,,0.00,Wunderground v.1.15,2013-07-02 18:40:00,
2013-07-02 13:47:00,75.1,53.5,30.07,NNW,339,5.0,5.0,47,0.00,,,0.00,Wunderground v.1.15,2013-07-02 18:47:00,
2013-07-02 13:57:00,74.6,52.4,30.07,NNE,19,4.0,4.0,46,0.00,,,0.00,Wunderground v.1.15,2013-07-02 18:57:00,
2013-07-02 14:07:00,74.9,53.9,30.07,NNE,15,3.0,3.0,48,0.00,,,0.00,Wunderground v.1.15,2013-07-02 19:07:00,
2013-07-02 14:16:00,75.4,53.8,30.06,NNE,13,3.0,3.0,47,0.00,,,0.00,Wunderground v.1.15,2013-07-02 19:16:00,
2013-07-02 14:22:00,75.7,52.8,30.06,North,354,3.0,3.0,45,0.00,,,0.00,Wunderground v.1.15,2013-07-02 19:22:00,
2013-07-02 14:27:00,76.0,54.3,30.06,NNW,336,3.0,3.0,47,0.00,,,0.00,Wunderground v.1.15,2013-07-02 19:27:00,
2013-07-02 14:32:00,75.9,53.6,30.06,NNW,340,3.0,3.0,46,0.00,,,0.00,Wunderground v.1.15,2013-07-02 19:32:00,
2013-07-02 14:41:00,76.7,51.2,30.06,NW,322,2.0,3.0,41,0.00,,,0.00,Wunderground v.1.15,2013-07-02 19:41:00,
2013-07-02 14:51:00,76.5,51.0,30.06,NE,34,3.0,5.0,41,0.00,,,0.00,Wunderground v.1.15,2013-07-02 19:51:00,
2013-07-02 14:56:00,76.5,50.4,30.06,East,96,4.0,4.0,40,0.00,,,0.00,Wunderground v.1.15,2013-07-02 19:56:00,
2013-07-02 15:06:00,76.3,48.8,30.06,NNE,15,4.0,4.0,38,0.00,,,0.00,Wunderground v.1.15,2013-07-02 20:06:00,
2013-07-02 15:11:00,76.7,49.9,30.06,ESE,117,3.0,4.0,39,0.00,,,0.00,Wunderground v.1.15,2013-07-02 20:11:00,
2013-07-02 15:16:00,76.5,48.3,30.06,East,95,2.0,2.0,37,0.00,,,0.00,Wunderground v.1.15,2013-07-02 20:16:00,
2013-07-02 15:26:00,75.9,44.7,30.06,ENE,60,4.0,4.0,33,0.00,,,0.00,Wunderground v.1.15,2013-07-02 20:26:00,
2013-07-02 15:31:00,75.9,47.0,30.06,NNW,344,4.0,4.0,36,0.00,,,0.00,Wunderground v.1.15,2013-07-02 20:31:00,
2013-07-02 15:36:00,75.9,43.1,30.06,NNW,345,3.0,6.0,31,0.00,,,0.00,Wunderground v.1.15,2013-07-02 20:36:00,
2013-07-02 15:41:00,75.7,42.1,30.06,NNE,22,4.0,6.0,30,0.00,,,0.00,Wunderground v.1.15,2013-07-02 20:41:00,
2013-07-02 15:46:00,75.6,42.8,30.05,NNW,335,3.0,5.0,31,0.00,,,0.00,Wunderground v.1.15,2013-07-02 20:46:00,
2013-07-02 15:51:00,75.7,44.5,30.05,NW,314,3.0,5.0,33,0.00,,,0.00,Wunderground v.1.15,2013-07-02 20:51:00,
2013-07-02 15:56:00,75.4,43.5,30.05,North,354,3.0,3.0,32,0.00,,,0.00,Wunderground v.1.15,2013-07-02 20:56:00,
2013-07-02 16:06:00,75.3,44.2,30.05,North,4,4.0,4.0,33,0.00,,,0.00,Wunderground v.1.15,2013-07-02 21:06:00,
2013-07-02 16:16:00,75.7,46.8,30.05,NNW,345,3.0,4.0,36,0.00,,,0.00,Wunderground v.1.15,2013-07-02 21:16:00,
2013-07-02 16:21:00,75.5,48.1,30.05,ENE,65,3.0,4.0,38,0.00,,,0.00,Wunderground v.1.15,2013-07-02 21:21:00,
2013-07-02 16:26:00,74.9,46.9,30.05,ENE,59,4.0,4.0,37,0.00,,,0.00,Wunderground v.1.15,2013-07-02 21:26:00,
2013-07-02 16:31:00,74.8,46.1,30.05,NNE,22,3.0,4.0,36,0.00,,,0.00,Wunderground v.1.15,2013-07-02 21:31:00,
2013-07-02 16:36:00,74.8,46.8,30.05,North,354,2.0,2.0,37,0.00,,,0.00,Wunderground v.1.15,2013-07-02 21:36:00,
2013-07-02 16:41:00,74.5,46.5,30.05,NE,52,2.0,4.0,37,0.00,,,0.00,Wunderground v.1.15,2013-07-02 21:41:00,
2013-07-02 16:46:00,74.5,47.9,30.05,North,351,3.0,3.0,39,0.00,,,0.00,Wunderground v.1.15,2013-07-02 21:46:00,
2013-07-02 16:51:00,74.5,47.9,30.05,NW,322,3.0,3.0,39,0.00,,,0.00,Wunderground v.1.15,2013-07-02 21:51:00,
2013-07-02 17:01:00,74.9,48.9,30.05,NE,55,1.0,2.0,40,0.00,,,0.00,Wunderground v.1.15,2013-07-02 22:01:00,
2013-07-02 17:11:00,74.6,46.6,30.04,NE,36,2.0,2.0,37,0.00,,,0.00,Wunderground v.1.15,2013-07-02 22:11:00,
2013-07-02 17:16:00,74.5,47.2,30.04,NNE,33,2.0,2.0,38,0.00,,,0.00,Wunderground v.1.15,2013-07-02 22:16:00,
2013-07-02 17:21:00,74.6,45.9,30.04,NE,43,2.0,5.0,36,0.00,,,0.00,Wunderground v.1.15,2013-07-02 22:21:00,
2013-07-02 17:26:00,74.6,45.9,30.04,NNE,13,3.0,3.0,36,0.00,,,0.00,Wunderground v.1.15,2013-07-02 22:26:00,
2013-07-02 17:31:00,74.7,47.4,30.04,NE,48,3.0,4.0,38,0.00,,,0.00,Wunderground v.1.15,2013-07-02 22:31:00,
2013-07-02 17:41:00,74.8,46.1,30.05,NE,52,2.0,7.0,36,0.00,,,0.00,Wunderground v.1.15,2013-07-02 22:41:00,
2013-07-02 17:51:00,75.0,47.7,30.04,NNE,22,2.0,2.0,38,0.00,,,0.00,Wunderground v.1.15,2013-07-02 22:51:00,
2013-07-02 17:56:00,75.0,48.4,30.04,NE,53,3.0,3.0,39,0.00,,,0.00,Wunderground v.1.15,2013-07-02 22:56:00,
2013-07-02 18:06:00,75.4,47.3,30.04,ENE,68,1.0,1.0,37,0.00,,,0.00,Wunderground v.1.15,2013-07-02 23:06:00,
2013-07-02 18:11:00,75.5,49.5,30.04,NE,36,1.0,1.0,40,0.00,,,0.00,Wunderground v.1.15,2013-07-02 23:11:00,
2013-07-02 18:16:00,74.9,44.6,30.04,NNE,15,1.0,2.0,34,0.00,,,0.00,Wunderground v.1.15,2013-07-02 23:16:00,
2013-07-02 18:21:00,74.6,45.1,30.04,North,8,2.0,2.0,35,0.00,,,0.00,Wunderground v.1.15,2013-07-02 23:21:00,
2013-07-02 18:31:00,74.5,46.5,30.04,NNE,32,2.0,4.0,37,0.00,,,0.00,Wunderground v.1.15,2013-07-02 23:31:00,
2013-07-02 18:36:00,74.6,47.3,30.04,ENE,75,1.0,1.0,38,0.00,,,0.00,Wunderground v.1.15,2013-07-02 23:36:00,
2013-07-02 18:41:00,74.8,46.1,30.04,NE,39,1.0,1.0,36,0.00,,,0.00,Wunderground v.1.15,2013-07-02 23:41:00,
2013-07-02 18:47:00,74.4,45.7,30.04,NE,52,2.0,4.0,36,0.00,,,0.00,Wunderground v.1.15,2013-07-02 23:47:00,
2013-07-02 18:52:00,74.2,47.6,30.04,NNW,328,2.0,4.0,39,0.00,,,0.00,Wunderground v.1.15,2013-07-02 23:52:00,
2013-07-02 19:00:00,73.8,45.2,30.04,NE,44,2.0,2.0,36,0.00,,,0.00,Wunderground v.1.15,2013-07-03 00:00:00,
2013-07-02 19:05:00,73.3,48.2,30.04,NE,53,2.0,2.0,41,0.00,,,0.00,Wunderground v.1.15,2013-07-03 00:05:00,
2013-07-02 19:10:00,73.0,47.2,30.04,NNE,19,1.0,1.0,40,0.00,,,0.00,Wunderground v.1.15,2013-07-03 00:10:00,
2013-07-02 19:20:00,72.7,47.0,30.04,North,8,2.0,2.0,40,0.00,,,0.00,Wunderground v.1.15,2013-07-03 00:20:00,
2013-07-02 19:25:00,72.7,47.0,30.04,NW,315,2.0,2.0,40,0.00,,,0.00,Wunderground v.1.15,2013-07-03 00:25:00,
2013-07-02 19:30:00,72.7,47.0,30.04,ENE,63,2.0,2.0,40,0.00,,,0.00,Wunderground v.1.15,2013-07-03 00:30:00,
2013-07-02 19:35:00,72.5,48.7,30.03,NNW,346,1.0,2.0,43,0.00,,,0.00,Wunderground v.1.15,2013-07-03 00:35:00,
2013-07-02 19:40:00,72.3,47.3,30.03,NE,34,1.0,3.0,41,0.00,,,0.00,Wunderground v.1.15,2013-07-03 00:40:00,
2013-07-02 19:45:00,71.8,48.1,30.03,NE,34,1.0,3.0,43,0.00,,,0.00,Wunderground v.1.15,2013-07-03 00:45:00,
2013-07-02 19:50:00,71.5,46.6,30.03,NE,43,1.0,1.0,41,0.00,,,0.00,Wunderground v.1.15,2013-07-03 00:50:00,
2013-07-02 19:55:00,71.2,48.8,30.03,NE,54,1.0,2.0,45,0.00,,,0.00,Wunderground v.1.15,2013-07-03 00:55:00,
2013-07-02 20:00:00,70.9,49.1,30.04,WSW,253,0.0,0.0,46,0.00,,,0.00,Wunderground v.1.15,2013-07-03 01:00:00,
2013-07-02 20:10:00,69.7,51.8,30.04,ENE,72,0.0,0.0,53,0.00,,,0.00,Wunderground v.1.15,2013-07-03 01:10:00,
2013-07-02 20:15:00,68.9,51.6,30.04,ENE,63,0.0,0.0,54,0.00,,,0.00,Wunderground v.1.15,2013-07-03 01:15:00,
2013-07-02 20:20:00,68.2,51.9,30.04,SW,219,0.0,0.0,56,0.00,,,0.00,Wunderground v.1.15,2013-07-03 01:20:00,
2013-07-02 20:25:00,67.4,52.1,30.04,East,79,0.0,0.0,58,0.00,,,0.00,Wunderground v.1.15,2013-07-03 01:25:00,
2013-07-02 20:30:00,66.8,51.5,30.04,NE,53,0.0,0.0,58,0.00,,,0.00,Wunderground v.1.15,2013-07-03 01:30:00,
2013-07-02 20:40:00,65.6,51.3,30.04,WNW,300,0.0,0.0,60,0.00,,,0.00,Wunderground v.1.15,2013-07-03 01:40:00,
2013-07-02 20:45:00,65.0,50.8,30.04,East,91,0.0,0.0,60,0.00,,,0.00,Wunderground v.1.15,2013-07-03 01:45:00,
2013-07-02 20:50:00,64.4,49.8,30.04,NW,321,0.0,0.0,59,0.00,,,0.00,Wunderground v.1.15,2013-07-03 01:50:00,
2013-07-02 20:55:00,64.0,49.8,30.04,NW,311,0.0,0.0,60,0.00,,,0.00,Wunderground v.1.15,2013-07-03 01:55:00,
2013-07-02 21:00:00,63.5,49.4,30.04,NW,312,0.0,0.0,60,0.00,,,0.00,Wunderground v.1.15,2013-07-03 02:00:00,
2013-07-02 21:10:00,62.7,49.1,30.05,WSW,240,0.0,0.0,61,0.00,,,0.00,Wunderground v.1.15,2013-07-03 02:10:00,
2013-07-02 21:15:00,62.4,48.8,30.05,ENE,64,0.0,0.0,61,0.00,,,0.00,Wunderground v.1.15,2013-07-03 02:15:00,
2013-07-02 21:25:00,61.8,48.6,30.05,East,98,0.0,0.0,62,0.00,,,0.00,Wunderground v.1.15,2013-07-03 02:25:00,
2013-07-02 21:30:00,61.4,48.3,30.05,East,98,0.0,0.0,62,0.00,,,0.00,Wunderground v.1.15,2013-07-03 02:30:00,
2013-07-02 21:40:00,60.7,48.4,30.06,East,98,0.0,0.0,64,0.00,,,0.00,Wunderground v.1.15,2013-07-03 02:40:00,
2013-07-02 21:45:00,60.5,48.7,30.06,East,98,0.0,0.0,65,0.00,,,0.00,Wunderground v.1.15,2013-07-03 02:45:00,
2013-07-02 21:50:00,60.3,48.5,30.06,ESE,114,0.0,0.0,65,0.00,,,0.00,Wunderground v.1.15,2013-07-03 02:50:00,
2013-07-02 21:55:00,60.0,48.6,30.06,ESE,114,0.0,0.0,66,0.00,,,0.00,Wunderground v.1.15,2013-07-03 02:55:00,
2013-07-02 22:00:00,59.8,48.4,30.06,SE,141,0.0,0.0,66,0.00,,,0.00,Wunderground v.1.15,2013-07-03 03:00:00,
2013-07-02 22:20:00,58.9,48.4,30.06,SW,232,0.0,0.0,68,0.00,,,0.00,Wunderground v.1.15,2013-07-03 03:20:00,
2013-07-02 22:25:00,58.6,48.5,30.06,SW,231,0.0,0.0,69,0.00,,,0.00,Wunderground v.1.15,2013-07-03 03:25:00,
2013-07-02 22:30:00,58.4,48.3,30.06,WSW,238,0.0,0.0,69,0.00,,,0.00,Wunderground v.1.15,2013-07-03 03:30:00,
2013-07-02 22:35:00,58.2,48.8,30.06,WSW,238,0.0,0.0,71,0.00,,,0.00,Wunderground v.1.15,2013-07-03 03:35:00,
2013-07-02 22:39:00,57.9,48.6,30.06,WSW,238,0.0,0.0,71,0.00,,,0.00,Wunderground v.1.15,2013-07-03 03:39:00,
2013-07-02 22:44:00,57.6,48.3,30.06,WSW,238,0.0,0.0,71,0.00,,,0.00,Wunderground v.1.15,2013-07-03 03:44:00,
2013-07-02 22:50:00,57.3,48.0,30.06,WSW,238,0.0,0.0,71,0.00,,,0.00,Wunderground v.1.15,2013-07-03 03:50:00,
2013-07-02 23:00:00,56.8,47.5,30.06,WSW,238,0.0,0.0,71,0.00,,,0.00,Wunderground v.1.15,2013-07-03 04:00:00,
2013-07-02 23:05:00,56.8,47.9,30.06,WSW,238,0.0,0.0,72,0.00,,,0.00,Wunderground v.1.15,2013-07-03 04:05:00,
2013-07-02 23:10:00,56.5,48.3,30.06,WSW,238,0.0,0.0,74,0.00,,,0.00,Wunderground v.1.15,2013-07-03 04:10:00,
2013-07-02 23:15:00,56.4,48.2,30.06,WSW,238,0.0,0.0,74,0.00,,,0.00,Wunderground v.1.15,2013-07-03 04:15:00,
2013-07-02 23:19:00,56.3,48.1,30.06,WSW,238,0.0,0.0,74,0.00,,,0.00,Wunderground v.1.15,2013-07-03 04:19:00,
2013-07-02 23:24:00,56.2,48.0,30.06,WSW,238,0.0,0.0,74,0.00,,,0.00,Wunderground v.1.15,2013-07-03 04:24:00,
2013-07-02 23:29:00,56.1,47.9,30.06,WSW,238,0.0,0.0,74,0.00,,,0.00,Wunderground v.1.15,2013-07-03 04:29:00,
2013-07-02 23:34:00,56.0,48.2,30.06,WSW,238,0.0,0.0,75,0.00,,,0.00,Wunderground v.1.15,2013-07-03 04:34:00,
2013-07-02 23:39:00,55.8,48.7,30.06,WSW,238,0.0,0.0,77,0.00,,,0.00,Wunderground v.1.15,2013-07-03 04:39:00,
2013-07-02 23:44:00,55.7,48.6,30.06,WSW,238,0.0,0.0,77,0.00,,,0.00,Wunderground v.1.15,2013-07-03 04:44:00,
2013-07-02 23:49:00,55.3,48.9,30.06,WSW,238,0.0,0.0,79,0.00,,,0.00,Wunderground v.1.15,2013-07-03 04:49:00,
2013-07-02 23:54:00,55.0,48.9,30.06,WSW,238,0.0,0.0,80,0.00,,,0.00,Wunderground v.1.15,2013-07-03 04:54:00,